Nearby METAR Reports for Burr Ridge, IL

 

KMDW - Chicago, Illinois, USA
Distance from station: ENE 8mi, 13km
Updated: Mon, 22-May-2017 5:53pm MST
Overcast
Overcast
 Wind from SSW
Wind: SSW 14 mph , 22 km/h, Gust: 23 mph , 37 km/h
Temperature: 64°F , 18°C
Dew Point: 55°F , 13°C
Humidity: 73%
Barometer: 29.92 inHg , 1013.2 hPa
Clouds: Overcast
Visibility: 10 miles , 16 km
Cloud details: Partly cloudy 5000 ft
Mostly cloudy 6500 ft
Overcast 15000 ft
2017/05/23 00:53 KMDW 230053Z 21012G20KT 10SM SCT050 BKN065 OVC150 18/13 A2992 RMK AO2 PK WND 22026/0017 RAB28E53 SLP129 P0000 T01830128
KLOT - Romeoville/Chi, Illinois, USA
Distance from station: SW 15mi, 24km
Updated: Mon, 22-May-2017 5:55pm MST
Overcast
Overcast
 Wind from WSW
Wind: WSW 17 mph , 28 km/h, Gust: 23 mph , 37 km/h
Temperature: 63°F , 17°C
Dew Point: 55°F , 13°C
Humidity: 77%
Barometer: 29.94 inHg , 1013.9 hPa
Clouds: Overcast
Visibility: 10 miles , 16 km
Cloud details: Mostly cloudy 7000 ft
Overcast 11000 ft
2017/05/23 00:55 KLOT 230055Z AUTO 24015G20KT 10SM BKN070 OVC110 17/13 A2994 RMK AO2 T01700131
 
KORD - Chicago O'hare, Illinois, USA
Distance from station: N 16mi, 25km
Updated: Mon, 22-May-2017 5:51pm MST
Overcast
Overcast
 Wind from SSW
Wind: SSW 18 mph , 30 km/h, Gust: 24 mph , 39 km/h
Temperature: 64°F , 18°C
Dew Point: 54°F , 12°C
Humidity: 68%
Barometer: 29.90 inHg , 1012.5 hPa
Clouds: Overcast
Visibility: 10 miles , 16 km
Cloud details: Few Clouds 6500 ft
Partly cloudy 11000 ft
Mostly cloudy 16000 ft
Overcast 20000 ft
2017/05/23 00:51 KORD 230051Z 20016G21KT 10SM FEW065 SCT110 BKN160 OVC200 18/12 A2990 RMK AO2 RAB2359E15 SLP123 P0001 T01830117
KDPA - Chicago/Dupage, Illinois, USA
Distance from station: WNW 21mi, 34km
Updated: Mon, 22-May-2017 5:52pm MST
Clear
Clear
 Wind from SSW
Wind: SSW 17 mph , 28 km/h, Gust: 28 mph , 44 km/h
Temperature: 63°F , 17°C
Dew Point: 55°F , 13°C
Humidity: 77%
Barometer: 29.90 inHg , 1012.5 hPa
Clouds: Clear
Visibility: 10 miles , 16 km
2017/05/23 00:52 KDPA 230052Z 21015G24KT 10SM CLR 17/13 A2990 RMK AO2 PK WND 23027/0002 SLP125 T01670133
 
KJOT - Joliet, Illinois, USA
Distance from station: SW 22mi, 36km
Updated: Sat, 20-May-2017 5:55am MST
NOT Current
Mist, Overcast
Mist, Overcast
 Wind from E
Wind: E 10 mph , 17 km/h, Gust: 18 mph , 30 km/h
Temperature: 54°F , 12°C
Dew Point: 50°F , 10°C
Humidity: 88%
Barometer: 30.04 inHg , 1017.3 hPa
Summary: Mist
Clouds: Overcast
Visibility: 5 miles , 8 km
Cloud details: Overcast 1000 ft
2017/05/20 12:55 KJOT 201255Z AUTO 08009G16KT 5SM BR OVC010 12/10 A3004 RMK AO2 T01180104
KIGQ - Chicago/Lansing, Illinois, USA
Distance from station: SE 24mi, 39km
Updated: Mon, 22-May-2017 5:55pm MST
Overcast
Overcast
 Wind from WSW
Wind: WSW 15 mph , 24 km/h, Gust: 24 mph , 39 km/h
Temperature: 64°F , 18°C
Dew Point: 54°F , 12°C
Humidity: 68%
Barometer: 29.95 inHg , 1014.2 hPa
Clouds: Overcast
Visibility: 10 miles , 16 km
Cloud details: Overcast 8000 ft
2017/05/23 00:55 KIGQ 230055Z AUTO 24013G21KT 10SM OVC080 18/12 A2995 RMK AO2 T01800117
 
KPWK - Palwaukee, Illinois, USA
Distance from station: N 25mi, 40km
Updated: Mon, 22-May-2017 5:52pm MST
Clear
Clear
 Wind from SW
Wind: SW 14 mph , 22 km/h, Gust: 20 mph , 31 km/h
Temperature: 64°F , 18°C
Dew Point: 54°F , 12°C
Humidity: 68%
Barometer: 29.90 inHg , 1012.5 hPa
Clouds: Clear
Visibility: 10 miles , 16 km
2017/05/23 00:52 KPWK 230052Z 23012G17KT 10SM CLR 18/12 A2990 RMK AO2 SLP124 T01830122
KGYY - Gary Regional, Indiana, USA
Distance from station: ESE 27mi, 43km
Updated: Mon, 22-May-2017 5:45pm MST
Overcast
Overcast
 Wind from WSW
Wind: WSW 23 mph , 37 km/h
Temperature: 68°F , 20°C
Dew Point: 48°F , 9°C
Humidity: 49%
Barometer: 29.95 inHg , 1014.2 hPa
Clouds: Overcast
Visibility: 15 miles , 24 km
Cloud details: Overcast 8000 ft
2017/05/23 00:45 KGYY 230045Z 25020KT 15SM OVC080 20/09 A2995
 
KARR - Chicago/Aurora, Illinois, USA
Distance from station: W 30mi, 48km
Updated: Mon, 22-May-2017 5:52pm MST
Mostly cloudy
Mostly cloudy
 Wind from S
Wind: S 13 mph , 20 km/h
Temperature: 63°F , 17°C
Dew Point: 55°F , 13°C
Humidity: 77%
Barometer: 29.91 inHg , 1012.9 hPa
Clouds: Mostly cloudy
Visibility: 10 miles , 16 km
Cloud details: Few Clouds 8500 ft
Mostly cloudy 11000 ft
2017/05/23 00:52 KARR 230052Z 19011KT 10SM FEW085 BKN110 17/13 A2991 RMK AO2 SLP129 T01720128 $
KC09 - Morris-Washburn, Illinois, USA
Distance from station: SW 35mi, 56km
Updated: Mon, 22-May-2017 5:55pm MST
Light drizzle, Overcast
Light drizzle, Overcast
 Wind from SW
Wind: SW 14 mph , 22 km/h, Gust: 22 mph , 35 km/h
Temperature: 61°F , 16°C
Dew Point: 54°F , 12°C
Humidity: 77%
Barometer: 29.94 inHg , 1013.9 hPa
Summary: Light Drizzle
Clouds: Overcast
Visibility: 10 miles , 16 km
Cloud details: Overcast 9000 ft
2017/05/23 00:55 KC09 230055Z AUTO 22012G19KT 10SM -DZ OVC090 16/12 A2994 RMK AO2 T01640124
 
KDKB - De Kalb, Illinois, USA
Distance from station: WNW 43mi, 69km
Updated: Mon, 22-May-2017 5:55pm MST
Mostly cloudy
Mostly cloudy
 Wind from SSW
Wind: SSW 14 mph , 22 km/h, Gust: 20 mph , 31 km/h
Temperature: 61°F , 16°C
Dew Point: 55°F , 13°C
Humidity: 83%
Barometer: 29.90 inHg , 1012.5 hPa
Clouds: Mostly cloudy
Visibility: 10 miles , 16 km
Cloud details: Mostly cloudy 12000 ft
2017/05/23 00:55 KDKB 230055Z AUTO 21012G17KT 10SM BKN120 16/13 A2990 RMK AO2 T01630130
KUGN - Waukegan, Illinois, USA
Distance from station: N 46mi, 73km
Updated: Mon, 22-May-2017 5:55pm MST
Few Clouds
Few Clouds
 Wind from SW
Wind: SW 16 mph , 26 km/h, Gust: 29 mph , 46 km/h
Temperature: 64°F , 18°C
Dew Point: 54°F , 12°C
Humidity: 68%
Barometer: 29.87 inHg , 1011.5 hPa
Clouds: Few Clouds
Visibility: 10 miles , 16 km
Cloud details: Few Clouds 3700 ft
2017/05/23 00:55 KUGN 230055Z 22014G25KT 10SM FEW037 18/12 A2987 RMK AO2 PK WND 23026/2356 SLP111 T01830122
 
KIKK - Kankakee, Illinois, USA
Distance from station: S 48mi, 77km
Updated: Mon, 22-May-2017 5:55pm MST
Overcast
Overcast
 Wind from WSW
Wind: WSW 15 mph , 24 km/h, Gust: 20 mph , 31 km/h
Temperature: 64°F , 18°C
Dew Point: 52°F , 11°C
Humidity: 64%
Barometer: 29.97 inHg , 1014.9 hPa
Clouds: Overcast
Visibility: 10 miles , 16 km
Cloud details: Overcast 7000 ft
2017/05/23 00:55 KIKK 230055Z AUTO 24013G17KT 10SM OVC070 18/11 A2997 RMK AO2 T01750111